sensor_id;sensor_type;location;lat;lon;timestamp;P1;durP1;ratioP1;P2;durP2;ratioP2
29688;SDS011;16600;47.444;8.334;2022-08-27T00:00:39;39.58;;;30.50;;
29688;SDS011;16600;47.444;8.334;2022-08-27T00:03:06;41.17;;;28.27;;
29688;SDS011;16600;47.444;8.334;2022-08-27T00:05:32;26.73;;;20.25;;
29688;SDS011;16600;47.444;8.334;2022-08-27T00:08:03;45.22;;;33.53;;
29688;SDS011;16600;47.444;8.334;2022-08-27T00:10:29;24.52;;;21.63;;
29688;SDS011;16600;47.444;8.334;2022-08-27T00:12:55;26.02;;;19.98;;
29688;SDS011;16600;47.444;8.334;2022-08-27T00:15:22;54.30;;;37.60;;
29688;SDS011;16600;47.444;8.334;2022-08-27T00:17:48;51.17;;;37.40;;
29688;SDS011;16600;47.444;8.334;2022-08-27T00:22:40;36.65;;;25.38;;
29688;SDS011;16600;47.444;8.334;2022-08-27T00:25:06;39.22;;;31.42;;
29688;SDS011;16600;47.444;8.334;2022-08-27T00:27:32;36.53;;;28.13;;
29688;SDS011;16600;47.444;8.334;2022-08-27T00:29:58;48.03;;;35.00;;
29688;SDS011;16600;47.444;8.334;2022-08-27T00:32:25;36.95;;;29.38;;
29688;SDS011;16600;47.444;8.334;2022-08-27T00:34:51;45.25;;;32.33;;
29688;SDS011;16600;47.444;8.334;2022-08-27T00:37:17;29.92;;;25.60;;
29688;SDS011;16600;47.444;8.334;2022-08-27T00:39:44;30.45;;;25.88;;
29688;SDS011;16600;47.444;8.334;2022-08-27T00:44:35;42.28;;;32.67;;
29688;SDS011;16600;47.444;8.334;2022-08-27T00:47:04;30.00;;;25.63;;
29688;SDS011;16600;47.444;8.334;2022-08-27T00:49:39;51.63;;;36.08;;
29688;SDS011;16600;47.444;8.334;2022-08-27T00:52:07;28.45;;;23.85;;
29688;SDS011;16600;47.444;8.334;2022-08-27T00:54:34;35.15;;;28.60;;
29688;SDS011;16600;47.444;8.334;2022-08-27T00:57:00;44.35;;;35.53;;
29688;SDS011;16600;47.444;8.334;2022-08-27T00:59:28;22.15;;;19.77;;
29688;SDS011;16600;47.444;8.334;2022-08-27T01:01:55;24.17;;;20.17;;
29688;SDS011;16600;47.444;8.334;2022-08-27T01:04:40;25.33;;;21.73;;
29688;SDS011;16600;47.444;8.334;2022-08-27T01:07:07;34.65;;;26.92;;
29688;SDS011;16600;47.444;8.334;2022-08-27T01:09:34;44.30;;;32.55;;
29688;SDS011;16600;47.444;8.334;2022-08-27T01:12:00;29.25;;;24.90;;
29688;SDS011;16600;47.444;8.334;2022-08-27T01:14:26;23.92;;;21.48;;
29688;SDS011;16600;47.444;8.334;2022-08-27T01:16:53;31.13;;;25.50;;
29688;SDS011;16600;47.444;8.334;2022-08-27T01:19:43;23.27;;;20.88;;
29688;SDS011;16600;47.444;8.334;2022-08-27T01:22:13;37.47;;;29.85;;
29688;SDS011;16600;47.444;8.334;2022-08-27T01:24:45;24.52;;;19.58;;
29688;SDS011;16600;47.444;8.334;2022-08-27T01:27:12;45.45;;;32.35;;
29688;SDS011;16600;47.444;8.334;2022-08-27T01:29:40;28.27;;;24.08;;
29688;SDS011;16600;47.444;8.334;2022-08-27T01:32:08;33.33;;;27.50;;
29688;SDS011;16600;47.444;8.334;2022-08-27T01:34:34;28.98;;;24.90;;
29688;SDS011;16600;47.444;8.334;2022-08-27T01:37:01;40.63;;;31.25;;
29688;SDS011;16600;47.444;8.334;2022-08-27T01:39:30;30.08;;;22.90;;
29688;SDS011;16600;47.444;8.334;2022-08-27T01:42:01;30.55;;;25.15;;
29688;SDS011;16600;47.444;8.334;2022-08-27T01:44:39;26.17;;;20.80;;
29688;SDS011;16600;47.444;8.334;2022-08-27T01:47:05;28.67;;;24.00;;
29688;SDS011;16600;47.444;8.334;2022-08-27T01:49:32;32.03;;;27.08;;
29688;SDS011;16600;47.444;8.334;2022-08-27T01:51:58;30.75;;;22.77;;
29688;SDS011;16600;47.444;8.334;2022-08-27T01:54:24;26.85;;;23.80;;
29688;SDS011;16600;47.444;8.334;2022-08-27T01:56:50;36.67;;;31.10;;
29688;SDS011;16600;47.444;8.334;2022-08-27T02:01:42;35.15;;;28.83;;
29688;SDS011;16600;47.444;8.334;2022-08-27T02:04:08;32.50;;;26.98;;
29688;SDS011;16600;47.444;8.334;2022-08-27T02:08:59;44.13;;;31.52;;
29688;SDS011;16600;47.444;8.334;2022-08-27T02:13:51;37.50;;;30.00;;
29688;SDS011;16600;47.444;8.334;2022-08-27T02:18:43;44.13;;;32.58;;
29688;SDS011;16600;47.444;8.334;2022-08-27T02:21:09;46.53;;;32.78;;
29688;SDS011;16600;47.444;8.334;2022-08-27T02:26:01;41.30;;;30.63;;
29688;SDS011;16600;47.444;8.334;2022-08-27T02:28:30;46.88;;;34.88;;
29688;SDS011;16600;47.444;8.334;2022-08-27T02:30:56;38.15;;;31.02;;
29688;SDS011;16600;47.444;8.334;2022-08-27T02:35:47;48.58;;;33.92;;
29688;SDS011;16600;47.444;8.334;2022-08-27T02:38:14;46.53;;;34.63;;
29688;SDS011;16600;47.444;8.334;2022-08-27T02:40:40;39.33;;;31.05;;
29688;SDS011;16600;47.444;8.334;2022-08-27T02:45:32;31.77;;;26.27;;
29688;SDS011;16600;47.444;8.334;2022-08-27T02:47:58;45.95;;;32.38;;
29688;SDS011;16600;47.444;8.334;2022-08-27T02:52:50;29.15;;;24.75;;
29688;SDS011;16600;47.444;8.334;2022-08-27T02:55:16;26.00;;;23.25;;
29688;SDS011;16600;47.444;8.334;2022-08-27T02:57:42;26.60;;;23.88;;
29688;SDS011;16600;47.444;8.334;2022-08-27T03:00:09;46.20;;;33.88;;
29688;SDS011;16600;47.444;8.334;2022-08-27T03:02:36;38.90;;;24.98;;
29688;SDS011;16600;47.444;8.334;2022-08-27T03:05:03;32.35;;;25.98;;
29688;SDS011;16600;47.444;8.334;2022-08-27T03:07:30;34.35;;;26.85;;
29688;SDS011;16600;47.444;8.334;2022-08-27T03:09:56;34.13;;;25.98;;
29688;SDS011;16600;47.444;8.334;2022-08-27T03:12:22;31.85;;;27.70;;
29688;SDS011;16600;47.444;8.334;2022-08-27T03:14:49;33.40;;;24.17;;
29688;SDS011;16600;47.444;8.334;2022-08-27T03:17:15;37.33;;;29.40;;
29688;SDS011;16600;47.444;8.334;2022-08-27T03:19:59;50.58;;;34.00;;
29688;SDS011;16600;47.444;8.334;2022-08-27T03:22:26;41.65;;;29.95;;
29688;SDS011;16600;47.444;8.334;2022-08-27T03:27:20;37.30;;;28.85;;
29688;SDS011;16600;47.444;8.334;2022-08-27T03:29:46;25.88;;;23.08;;
29688;SDS011;16600;47.444;8.334;2022-08-27T03:32:12;37.08;;;28.35;;
29688;SDS011;16600;47.444;8.334;2022-08-27T03:34:38;26.27;;;20.45;;
29688;SDS011;16600;47.444;8.334;2022-08-27T03:37:04;34.38;;;27.63;;
29688;SDS011;16600;47.444;8.334;2022-08-27T03:39:30;28.27;;;24.33;;
29688;SDS011;16600;47.444;8.334;2022-08-27T03:44:22;24.75;;;21.73;;
29688;SDS011;16600;47.444;8.334;2022-08-27T03:46:49;29.45;;;24.30;;
29688;SDS011;16600;47.444;8.334;2022-08-27T03:49:15;38.42;;;26.52;;
29688;SDS011;16600;47.444;8.334;2022-08-27T03:51:41;29.52;;;25.90;;
29688;SDS011;16600;47.444;8.334;2022-08-27T03:54:07;33.25;;;26.50;;
29688;SDS011;16600;47.444;8.334;2022-08-27T03:59:04;26.90;;;23.60;;
29688;SDS011;16600;47.444;8.334;2022-08-27T04:03:04;27.03;;;23.63;;
29688;SDS011;16600;47.444;8.334;2022-08-27T04:05:30;25.55;;;21.90;;
29688;SDS011;16600;47.444;8.334;2022-08-27T04:07:56;33.67;;;26.73;;
29688;SDS011;16600;47.444;8.334;2022-08-27T04:12:48;29.77;;;25.70;;
29688;SDS011;16600;47.444;8.334;2022-08-27T04:15:15;28.63;;;24.75;;
29688;SDS011;16600;47.444;8.334;2022-08-27T04:17:41;44.95;;;29.13;;
29688;SDS011;16600;47.444;8.334;2022-08-27T04:20:07;29.67;;;26.33;;
29688;SDS011;16600;47.444;8.334;2022-08-27T04:22:33;28.73;;;24.58;;
29688;SDS011;16600;47.444;8.334;2022-08-27T04:25:00;28.00;;;24.65;;
29688;SDS011;16600;47.444;8.334;2022-08-27T04:27:26;24.48;;;21.80;;
29688;SDS011;16600;47.444;8.334;2022-08-27T04:29:56;26.38;;;23.73;;
29688;SDS011;16600;47.444;8.334;2022-08-27T04:32:23;40.67;;;31.63;;
29688;SDS011;16600;47.444;8.334;2022-08-27T04:34:56;43.30;;;30.85;;
29688;SDS011;16600;47.444;8.334;2022-08-27T04:37:23;32.45;;;27.85;;
29688;SDS011;16600;47.444;8.334;2022-08-27T04:39:49;35.25;;;28.38;;
29688;SDS011;16600;47.444;8.334;2022-08-27T04:42:16;33.55;;;28.08;;
29688;SDS011;16600;47.444;8.334;2022-08-27T04:44:42;45.65;;;32.58;;
29688;SDS011;16600;47.444;8.334;2022-08-27T04:47:09;49.78;;;34.42;;
29688;SDS011;16600;47.444;8.334;2022-08-27T04:49:35;35.25;;;29.15;;
29688;SDS011;16600;47.444;8.334;2022-08-27T04:52:02;42.30;;;33.97;;
29688;SDS011;16600;47.444;8.334;2022-08-27T04:54:28;42.40;;;33.15;;
29688;SDS011;16600;47.444;8.334;2022-08-27T04:56:54;37.63;;;30.88;;
29688;SDS011;16600;47.444;8.334;2022-08-27T04:59:20;28.95;;;25.02;;
29688;SDS011;16600;47.444;8.334;2022-08-27T05:01:48;34.47;;;27.67;;
29688;SDS011;16600;47.444;8.334;2022-08-27T05:04:15;42.40;;;31.60;;
29688;SDS011;16600;47.444;8.334;2022-08-27T05:06:43;38.78;;;30.17;;
29688;SDS011;16600;47.444;8.334;2022-08-27T05:09:09;35.25;;;29.80;;
29688;SDS011;16600;47.444;8.334;2022-08-27T05:11:36;32.97;;;29.42;;
29688;SDS011;16600;47.444;8.334;2022-08-27T05:14:05;41.00;;;30.77;;
29688;SDS011;16600;47.444;8.334;2022-08-27T05:16:34;51.60;;;35.47;;
29688;SDS011;16600;47.444;8.334;2022-08-27T05:19:04;43.30;;;33.80;;
29688;SDS011;16600;47.444;8.334;2022-08-27T05:21:32;32.63;;;28.88;;
29688;SDS011;16600;47.444;8.334;2022-08-27T05:24:01;33.80;;;27.23;;
29688;SDS011;16600;47.444;8.334;2022-08-27T05:26:28;29.00;;;25.92;;
29688;SDS011;16600;47.444;8.334;2022-08-27T05:28:54;37.75;;;30.88;;
29688;SDS011;16600;47.444;8.334;2022-08-27T05:31:21;36.65;;;29.67;;
29688;SDS011;16600;47.444;8.334;2022-08-27T05:33:47;35.20;;;30.45;;
29688;SDS011;16600;47.444;8.334;2022-08-27T05:36:21;29.17;;;25.58;;
29688;SDS011;16600;47.444;8.334;2022-08-27T05:38:47;28.00;;;24.20;;
29688;SDS011;16600;47.444;8.334;2022-08-27T05:41:15;30.50;;;25.90;;
29688;SDS011;16600;47.444;8.334;2022-08-27T05:43:42;30.40;;;25.50;;
29688;SDS011;16600;47.444;8.334;2022-08-27T05:46:13;28.95;;;25.27;;
29688;SDS011;16600;47.444;8.334;2022-08-27T05:48:39;30.67;;;26.40;;
29688;SDS011;16600;47.444;8.334;2022-08-27T05:51:08;27.15;;;22.92;;
29688;SDS011;16600;47.444;8.334;2022-08-27T05:53:34;22.55;;;20.25;;
29688;SDS011;16600;47.444;8.334;2022-08-27T05:56:01;30.65;;;23.67;;
29688;SDS011;16600;47.444;8.334;2022-08-27T05:58:29;28.73;;;25.48;;
29688;SDS011;16600;47.444;8.334;2022-08-27T06:01:16;24.80;;;22.30;;
29688;SDS011;16600;47.444;8.334;2022-08-27T06:03:42;22.92;;;20.50;;
29688;SDS011;16600;47.444;8.334;2022-08-27T06:06:11;23.02;;;20.83;;
29688;SDS011;16600;47.444;8.334;2022-08-27T06:08:37;22.83;;;18.17;;
29688;SDS011;16600;47.444;8.334;2022-08-27T06:11:04;21.95;;;19.67;;
29688;SDS011;16600;47.444;8.334;2022-08-27T06:13:31;22.42;;;20.25;;
29688;SDS011;16600;47.444;8.334;2022-08-27T06:16:03;20.75;;;18.70;;
29688;SDS011;16600;47.444;8.334;2022-08-27T06:18:30;21.45;;;19.33;;
29688;SDS011;16600;47.444;8.334;2022-08-27T06:20:59;22.83;;;20.50;;
29688;SDS011;16600;47.444;8.334;2022-08-27T06:23:26;20.38;;;18.25;;
29688;SDS011;16600;47.444;8.334;2022-08-27T06:25:52;21.58;;;19.25;;
29688;SDS011;16600;47.444;8.334;2022-08-27T06:28:21;19.48;;;17.55;;
29688;SDS011;16600;47.444;8.334;2022-08-27T06:30:48;22.42;;;20.10;;
29688;SDS011;16600;47.444;8.334;2022-08-27T06:33:14;22.90;;;20.48;;
29688;SDS011;16600;47.444;8.334;2022-08-27T06:35:41;24.30;;;21.80;;
29688;SDS011;16600;47.444;8.334;2022-08-27T06:38:07;23.25;;;20.67;;
29688;SDS011;16600;47.444;8.334;2022-08-27T06:40:33;19.63;;;17.88;;
29688;SDS011;16600;47.444;8.334;2022-08-27T06:42:59;21.85;;;19.60;;
29688;SDS011;16600;47.444;8.334;2022-08-27T06:45:25;21.70;;;19.60;;
29688;SDS011;16600;47.444;8.334;2022-08-27T06:47:51;22.38;;;19.90;;
29688;SDS011;16600;47.444;8.334;2022-08-27T06:50:18;20.45;;;18.15;;
29688;SDS011;16600;47.444;8.334;2022-08-27T06:52:44;20.73;;;18.55;;
29688;SDS011;16600;47.444;8.334;2022-08-27T06:55:12;17.10;;;15.50;;
29688;SDS011;16600;47.444;8.334;2022-08-27T06:57:38;19.15;;;17.30;;
29688;SDS011;16600;47.444;8.334;2022-08-27T07:00:04;18.38;;;16.35;;
29688;SDS011;16600;47.444;8.334;2022-08-27T07:02:31;18.92;;;17.05;;
29688;SDS011;16600;47.444;8.334;2022-08-27T07:04:58;16.95;;;15.13;;
29688;SDS011;16600;47.444;8.334;2022-08-27T07:07:24;17.42;;;15.63;;
29688;SDS011;16600;47.444;8.334;2022-08-27T07:09:50;14.68;;;13.27;;
29688;SDS011;16600;47.444;8.334;2022-08-27T07:12:16;16.00;;;14.13;;
29688;SDS011;16600;47.444;8.334;2022-08-27T07:14:42;14.27;;;12.85;;
29688;SDS011;16600;47.444;8.334;2022-08-27T07:17:08;15.73;;;14.18;;
29688;SDS011;16600;47.444;8.334;2022-08-27T07:19:35;17.20;;;13.63;;
29688;SDS011;16600;47.444;8.334;2022-08-27T07:22:03;14.90;;;13.32;;
29688;SDS011;16600;47.444;8.334;2022-08-27T07:24:29;14.82;;;13.32;;
29688;SDS011;16600;47.444;8.334;2022-08-27T07:26:55;14.00;;;12.60;;
29688;SDS011;16600;47.444;8.334;2022-08-27T07:29:21;13.77;;;11.70;;
29688;SDS011;16600;47.444;8.334;2022-08-27T07:31:47;13.05;;;10.93;;
29688;SDS011;16600;47.444;8.334;2022-08-27T07:34:13;12.68;;;10.98;;
29688;SDS011;16600;47.444;8.334;2022-08-27T07:36:43;12.15;;;10.95;;
29688;SDS011;16600;47.444;8.334;2022-08-27T07:39:09;10.73;;;9.77;;
29688;SDS011;16600;47.444;8.334;2022-08-27T07:41:35;8.98;;;7.72;;
29688;SDS011;16600;47.444;8.334;2022-08-27T07:44:21;8.80;;;8.02;;
29688;SDS011;16600;47.444;8.334;2022-08-27T07:46:50;10.32;;;9.38;;
29688;SDS011;16600;47.444;8.334;2022-08-27T07:49:19;11.18;;;10.07;;
29688;SDS011;16600;47.444;8.334;2022-08-27T07:51:46;10.70;;;9.65;;
29688;SDS011;16600;47.444;8.334;2022-08-27T07:54:13;13.05;;;9.25;;
29688;SDS011;16600;47.444;8.334;2022-08-27T07:56:39;8.40;;;7.68;;
29688;SDS011;16600;47.444;8.334;2022-08-27T07:59:06;8.23;;;7.50;;
29688;SDS011;16600;47.444;8.334;2022-08-27T08:01:32;8.38;;;7.60;;
29688;SDS011;16600;47.444;8.334;2022-08-27T08:03:59;8.45;;;7.57;;
29688;SDS011;16600;47.444;8.334;2022-08-27T08:06:25;7.65;;;7.03;;
29688;SDS011;16600;47.444;8.334;2022-08-27T08:08:51;7.45;;;6.78;;
29688;SDS011;16600;47.444;8.334;2022-08-27T08:11:17;10.80;;;7.65;;
29688;SDS011;16600;47.444;8.334;2022-08-27T08:13:43;7.75;;;7.03;;
29688;SDS011;16600;47.444;8.334;2022-08-27T08:16:10;8.10;;;7.50;;
29688;SDS011;16600;47.444;8.334;2022-08-27T08:18:36;6.72;;;6.13;;
29688;SDS011;16600;47.444;8.334;2022-08-27T08:21:04;10.43;;;6.90;;
29688;SDS011;16600;47.444;8.334;2022-08-27T08:23:30;6.18;;;5.68;;
29688;SDS011;16600;47.444;8.334;2022-08-27T08:25:57;8.82;;;6.60;;
29688;SDS011;16600;47.444;8.334;2022-08-27T08:28:24;6.28;;;5.63;;
29688;SDS011;16600;47.444;8.334;2022-08-27T08:30:51;10.13;;;5.90;;
29688;SDS011;16600;47.444;8.334;2022-08-27T08:33:17;5.78;;;5.20;;
29688;SDS011;16600;47.444;8.334;2022-08-27T08:35:43;5.80;;;5.30;;
29688;SDS011;16600;47.444;8.334;2022-08-27T08:38:09;7.18;;;6.50;;
29688;SDS011;16600;47.444;8.334;2022-08-27T08:40:37;6.70;;;5.85;;
29688;SDS011;16600;47.444;8.334;2022-08-27T08:43:03;5.20;;;4.72;;
29688;SDS011;16600;47.444;8.334;2022-08-27T08:45:32;5.70;;;5.20;;
29688;SDS011;16600;47.444;8.334;2022-08-27T08:48:21;5.93;;;5.35;;
29688;SDS011;16600;47.444;8.334;2022-08-27T08:51:02;7.30;;;5.70;;
29688;SDS011;16600;47.444;8.334;2022-08-27T08:53:44;7.57;;;6.18;;
29688;SDS011;16600;47.444;8.334;2022-08-27T08:56:22;6.25;;;5.65;;
29688;SDS011;16600;47.444;8.334;2022-08-27T08:58:51;6.10;;;5.50;;
29688;SDS011;16600;47.444;8.334;2022-08-27T09:01:18;8.95;;;6.10;;
29688;SDS011;16600;47.444;8.334;2022-08-27T09:03:55;9.25;;;6.28;;
29688;SDS011;16600;47.444;8.334;2022-08-27T09:06:40;6.75;;;5.88;;
29688;SDS011;16600;47.444;8.334;2022-08-27T09:09:12;7.13;;;6.43;;
29688;SDS011;16600;47.444;8.334;2022-08-27T09:14:18;7.18;;;5.90;;
29688;SDS011;16600;47.444;8.334;2022-08-27T09:16:46;6.22;;;5.47;;
29688;SDS011;16600;47.444;8.334;2022-08-27T09:19:11;7.05;;;6.28;;
29688;SDS011;16600;47.444;8.334;2022-08-27T09:24:10;5.93;;;5.43;;
29688;SDS011;16600;47.444;8.334;2022-08-27T09:26:39;6.72;;;5.85;;
29688;SDS011;16600;47.444;8.334;2022-08-27T09:29:06;5.60;;;5.00;;
29688;SDS011;16600;47.444;8.334;2022-08-27T09:34:07;5.47;;;4.97;;
29688;SDS011;16600;47.444;8.334;2022-08-27T09:36:33;4.72;;;4.32;;
29688;SDS011;16600;47.444;8.334;2022-08-27T09:39:00;6.40;;;5.80;;
29688;SDS011;16600;47.444;8.334;2022-08-27T09:41:29;5.97;;;5.32;;
29688;SDS011;16600;47.444;8.334;2022-08-27T09:44:01;6.38;;;5.75;;
29688;SDS011;16600;47.444;8.334;2022-08-27T09:46:28;8.02;;;5.55;;
29688;SDS011;16600;47.444;8.334;2022-08-27T09:48:54;6.40;;;5.80;;
29688;SDS011;16600;47.444;8.334;2022-08-27T09:51:26;5.85;;;5.30;;
29688;SDS011;16600;47.444;8.334;2022-08-27T09:54:00;6.55;;;5.90;;
29688;SDS011;16600;47.444;8.334;2022-08-27T09:56:32;6.35;;;5.75;;
29688;SDS011;16600;47.444;8.334;2022-08-27T09:59:00;5.78;;;5.28;;
29688;SDS011;16600;47.444;8.334;2022-08-27T10:03:05;9.80;;;6.47;;
29688;SDS011;16600;47.444;8.334;2022-08-27T10:05:36;6.13;;;5.53;;
29688;SDS011;16600;47.444;8.334;2022-08-27T10:08:21;5.93;;;5.35;;
29688;SDS011;16600;47.444;8.334;2022-08-27T10:10:56;6.30;;;4.72;;
29688;SDS011;16600;47.444;8.334;2022-08-27T10:13:27;5.60;;;5.07;;
29688;SDS011;16600;47.444;8.334;2022-08-27T10:16:01;5.28;;;4.85;;
29688;SDS011;16600;47.444;8.334;2022-08-27T10:18:41;5.28;;;4.75;;
29688;SDS011;16600;47.444;8.334;2022-08-27T10:21:28;5.30;;;4.82;;
29688;SDS011;16600;47.444;8.334;2022-08-27T10:26:30;5.20;;;4.20;;
29688;SDS011;16600;47.444;8.334;2022-08-27T10:29:06;3.85;;;2.97;;
29688;SDS011;16600;47.444;8.334;2022-08-27T10:34:13;3.80;;;3.50;;
29688;SDS011;16600;47.444;8.334;2022-08-27T10:39:31;6.82;;;4.40;;
29688;SDS011;16600;47.444;8.334;2022-08-27T10:44:58;4.97;;;3.67;;
29688;SDS011;16600;47.444;8.334;2022-08-27T10:47:39;3.25;;;2.95;;
29688;SDS011;16600;47.444;8.334;2022-08-27T10:53:24;3.55;;;3.20;;
29688;SDS011;16600;47.444;8.334;2022-08-27T10:55:52;3.90;;;3.10;;
29688;SDS011;16600;47.444;8.334;2022-08-27T11:03:49;5.40;;;4.03;;
29688;SDS011;16600;47.444;8.334;2022-08-27T11:08:48;3.83;;;3.53;;
29688;SDS011;16600;47.444;8.334;2022-08-27T11:11:26;6.28;;;4.00;;
29688;SDS011;16600;47.444;8.334;2022-08-27T11:13:54;6.28;;;3.60;;
29688;SDS011;16600;47.444;8.334;2022-08-27T11:16:27;4.68;;;4.20;;
29688;SDS011;16600;47.444;8.334;2022-08-27T11:24:30;5.05;;;4.00;;
29688;SDS011;16600;47.444;8.334;2022-08-27T11:27:01;5.75;;;4.18;;
29688;SDS011;16600;47.444;8.334;2022-08-27T11:29:35;4.20;;;3.85;;
29688;SDS011;16600;47.444;8.334;2022-08-27T11:34:44;7.75;;;3.45;;
29688;SDS011;16600;47.444;8.334;2022-08-27T11:42:36;3.85;;;3.17;;
29688;SDS011;16600;47.444;8.334;2022-08-27T11:45:07;3.17;;;2.95;;
29688;SDS011;16600;47.444;8.334;2022-08-27T11:47:36;3.47;;;3.17;;
29688;SDS011;16600;47.444;8.334;2022-08-27T11:50:05;4.35;;;3.95;;
29688;SDS011;16600;47.444;8.334;2022-08-27T11:52:40;4.13;;;3.60;;
29688;SDS011;16600;47.444;8.334;2022-08-27T11:55:10;3.78;;;3.47;;
29688;SDS011;16600;47.444;8.334;2022-08-27T11:57:36;4.63;;;3.20;;
29688;SDS011;16600;47.444;8.334;2022-08-27T12:02:44;4.50;;;4.10;;
29688;SDS011;16600;47.444;8.334;2022-08-27T12:05:22;4.88;;;3.78;;
29688;SDS011;16600;47.444;8.334;2022-08-27T12:07:50;4.05;;;3.63;;
29688;SDS011;16600;47.444;8.334;2022-08-27T12:10:29;4.25;;;3.90;;
29688;SDS011;16600;47.444;8.334;2022-08-27T12:18:42;4.30;;;3.90;;
29688;SDS011;16600;47.444;8.334;2022-08-27T12:23:56;4.80;;;4.10;;
29688;SDS011;16600;47.444;8.334;2022-08-27T12:26:29;5.40;;;4.90;;
29688;SDS011;16600;47.444;8.334;2022-08-27T12:31:42;5.03;;;4.55;;
29688;SDS011;16600;47.444;8.334;2022-08-27T12:34:17;4.90;;;4.50;;
29688;SDS011;16600;47.444;8.334;2022-08-27T12:36:46;4.95;;;4.20;;
29688;SDS011;16600;47.444;8.334;2022-08-27T12:39:14;6.65;;;4.97;;
29688;SDS011;16600;47.444;8.334;2022-08-27T12:41:45;5.28;;;4.78;;
29688;SDS011;16600;47.444;8.334;2022-08-27T12:44:13;5.10;;;4.47;;
29688;SDS011;16600;47.444;8.334;2022-08-27T12:46:44;8.00;;;5.30;;
29688;SDS011;16600;47.444;8.334;2022-08-27T12:49:11;9.65;;;6.18;;
29688;SDS011;16600;47.444;8.334;2022-08-27T12:51:40;5.60;;;5.03;;
29688;SDS011;16600;47.444;8.334;2022-08-27T12:59:47;6.03;;;5.13;;
29688;SDS011;16600;47.444;8.334;2022-08-27T13:05:02;7.00;;;5.40;;
29688;SDS011;16600;47.444;8.334;2022-08-27T13:07:30;7.50;;;6.35;;
29688;SDS011;16600;47.444;8.334;2022-08-27T13:10:07;8.43;;;6.40;;
29688;SDS011;16600;47.444;8.334;2022-08-27T13:15:05;7.43;;;6.20;;
29688;SDS011;16600;47.444;8.334;2022-08-27T13:17:31;7.05;;;6.35;;
29688;SDS011;16600;47.444;8.334;2022-08-27T13:20:02;8.05;;;6.57;;
29688;SDS011;16600;47.444;8.334;2022-08-27T13:22:29;7.60;;;6.78;;
29688;SDS011;16600;47.444;8.334;2022-08-27T13:24:58;9.38;;;7.40;;
29688;SDS011;16600;47.444;8.334;2022-08-27T13:27:28;7.63;;;6.47;;
29688;SDS011;16600;47.444;8.334;2022-08-27T13:29:55;7.30;;;6.60;;
29688;SDS011;16600;47.444;8.334;2022-08-27T13:32:23;7.18;;;6.47;;
29688;SDS011;16600;47.444;8.334;2022-08-27T13:34:52;7.43;;;6.70;;
29688;SDS011;16600;47.444;8.334;2022-08-27T13:37:26;7.95;;;6.80;;
29688;SDS011;16600;47.444;8.334;2022-08-27T13:39:56;7.75;;;6.72;;
29688;SDS011;16600;47.444;8.334;2022-08-27T13:42:22;6.25;;;5.57;;
29688;SDS011;16600;47.444;8.334;2022-08-27T13:44:49;6.68;;;6.03;;
29688;SDS011;16600;47.444;8.334;2022-08-27T13:47:25;8.00;;;6.72;;
29688;SDS011;16600;47.444;8.334;2022-08-27T13:50:00;8.18;;;7.38;;
29688;SDS011;16600;47.444;8.334;2022-08-27T13:52:27;7.13;;;6.43;;
29688;SDS011;16600;47.444;8.334;2022-08-27T13:55:03;6.88;;;6.28;;
29688;SDS011;16600;47.444;8.334;2022-08-27T13:57:40;9.13;;;7.88;;
29688;SDS011;16600;47.444;8.334;2022-08-27T14:00:13;10.00;;;7.35;;
29688;SDS011;16600;47.444;8.334;2022-08-27T14:02:39;7.50;;;6.70;;
29688;SDS011;16600;47.444;8.334;2022-08-27T14:05:08;8.65;;;6.63;;
29688;SDS011;16600;47.444;8.334;2022-08-27T14:07:38;7.93;;;6.07;;
29688;SDS011;16600;47.444;8.334;2022-08-27T14:12:33;8.75;;;7.60;;
29688;SDS011;16600;47.444;8.334;2022-08-27T14:15:20;8.75;;;7.50;;
29688;SDS011;16600;47.444;8.334;2022-08-27T14:17:48;11.57;;;10.38;;
29688;SDS011;16600;47.444;8.334;2022-08-27T14:20:15;10.45;;;9.45;;
29688;SDS011;16600;47.444;8.334;2022-08-27T14:22:44;14.35;;;9.25;;
29688;SDS011;16600;47.444;8.334;2022-08-27T14:25:11;12.32;;;9.45;;
29688;SDS011;16600;47.444;8.334;2022-08-27T14:27:40;11.15;;;8.23;;
29688;SDS011;16600;47.444;8.334;2022-08-27T14:30:07;8.40;;;7.43;;
29688;SDS011;16600;47.444;8.334;2022-08-27T14:32:33;15.40;;;8.52;;
29688;SDS011;16600;47.444;8.334;2022-08-27T14:34:59;7.93;;;7.13;;
29688;SDS011;16600;47.444;8.334;2022-08-27T14:37:25;8.50;;;7.65;;
29688;SDS011;16600;47.444;8.334;2022-08-27T14:39:51;8.85;;;7.95;;
29688;SDS011;16600;47.444;8.334;2022-08-27T14:42:19;9.07;;;7.70;;
29688;SDS011;16600;47.444;8.334;2022-08-27T14:44:46;8.05;;;7.35;;
29688;SDS011;16600;47.444;8.334;2022-08-27T14:47:12;8.43;;;7.60;;
29688;SDS011;16600;47.444;8.334;2022-08-27T14:49:39;8.73;;;7.35;;
29688;SDS011;16600;47.444;8.334;2022-08-27T14:52:08;9.88;;;7.40;;
29688;SDS011;16600;47.444;8.334;2022-08-27T14:54:34;11.55;;;6.97;;
29688;SDS011;16600;47.444;8.334;2022-08-27T14:57:01;11.27;;;8.35;;
29688;SDS011;16600;47.444;8.334;2022-08-27T14:59:30;8.85;;;7.95;;
29688;SDS011;16600;47.444;8.334;2022-08-27T15:01:59;9.70;;;8.10;;
29688;SDS011;16600;47.444;8.334;2022-08-27T15:04:26;13.10;;;8.07;;
29688;SDS011;16600;47.444;8.334;2022-08-27T15:06:53;16.25;;;8.68;;
29688;SDS011;16600;47.444;8.334;2022-08-27T15:09:19;8.55;;;7.55;;
29688;SDS011;16600;47.444;8.334;2022-08-27T15:11:45;15.38;;;8.23;;
29688;SDS011;16600;47.444;8.334;2022-08-27T15:14:15;7.65;;;6.93;;
29688;SDS011;16600;47.444;8.334;2022-08-27T15:16:44;9.68;;;7.35;;
29688;SDS011;16600;47.444;8.334;2022-08-27T15:19:10;7.75;;;6.93;;
29688;SDS011;16600;47.444;8.334;2022-08-27T15:21:38;9.10;;;8.18;;
29688;SDS011;16600;47.444;8.334;2022-08-27T15:24:14;10.02;;;6.97;;
29688;SDS011;16600;47.444;8.334;2022-08-27T15:26:40;16.95;;;7.35;;
29688;SDS011;16600;47.444;8.334;2022-08-27T15:29:09;7.68;;;6.95;;
29688;SDS011;16600;47.444;8.334;2022-08-27T15:31:35;7.20;;;6.50;;
29688;SDS011;16600;47.444;8.334;2022-08-27T15:34:02;8.20;;;6.85;;
29688;SDS011;16600;47.444;8.334;2022-08-27T15:36:28;8.10;;;7.38;;
29688;SDS011;16600;47.444;8.334;2022-08-27T15:38:54;9.07;;;7.78;;
29688;SDS011;16600;47.444;8.334;2022-08-27T15:41:23;8.18;;;6.82;;
29688;SDS011;16600;47.444;8.334;2022-08-27T15:43:52;8.57;;;7.85;;
29688;SDS011;16600;47.444;8.334;2022-08-27T15:46:18;11.90;;;7.35;;
29688;SDS011;16600;47.444;8.334;2022-08-27T15:48:45;12.88;;;7.57;;
29688;SDS011;16600;47.444;8.334;2022-08-27T15:51:14;7.50;;;6.72;;
29688;SDS011;16600;47.444;8.334;2022-08-27T15:53:41;9.00;;;8.10;;
29688;SDS011;16600;47.444;8.334;2022-08-27T15:56:07;9.38;;;7.50;;
29688;SDS011;16600;47.444;8.334;2022-08-27T15:58:34;11.70;;;7.30;;
29688;SDS011;16600;47.444;8.334;2022-08-27T16:03:05;11.68;;;7.10;;
29688;SDS011;16600;47.444;8.334;2022-08-27T16:05:33;8.10;;;7.30;;
29688;SDS011;16600;47.444;8.334;2022-08-27T16:08:03;8.20;;;6.40;;
29688;SDS011;16600;47.444;8.334;2022-08-27T16:10:29;10.40;;;7.47;;
29688;SDS011;16600;47.444;8.334;2022-08-27T16:12:55;7.90;;;7.20;;
29688;SDS011;16600;47.444;8.334;2022-08-27T16:15:22;8.55;;;6.78;;
29688;SDS011;16600;47.444;8.334;2022-08-27T16:17:49;8.23;;;6.90;;
29688;SDS011;16600;47.444;8.334;2022-08-27T16:20:17;7.38;;;6.68;;
29688;SDS011;16600;47.444;8.334;2022-08-27T16:22:47;7.03;;;6.35;;
29688;SDS011;16600;47.444;8.334;2022-08-27T16:25:14;6.93;;;6.22;;
29688;SDS011;16600;47.444;8.334;2022-08-27T16:27:41;8.38;;;6.70;;
29688;SDS011;16600;47.444;8.334;2022-08-27T16:30:07;6.88;;;6.30;;